METAR Formatted Surface Weather Observation
Issued by NWS

Home | Current Version | Previous Version | Text Only | Print | Product List | Glossary On
Versions: 1 2 3
000
SAUS45 KFGZ 212358 COR
MTRRQE
METAR KRQE 212353Z AUTO 00000KT 10SM FEW110 31/01 A3029 RMK AO2
SLP115 T03110011 10322 20278 56014 TSNO



USA.gov is the U.S. government's official web portal to all federal, state and local government web resources and services.